Time;durP1;ratioP1;P1;durP2;ratioP2;P2;SDS_P1;SDS_P2;PMS_P1;PMS_P2;Temp;Humidity;BMP_temperature;BMP_pressure;BME280_temperature;BME280_humidity;BME280_pressure;Samples;Min_cycle;Max_cycle;Signal;HPM_P1;HPM_P2
2022/06/29 00:01:42;;;;;;;6.07;3.13;;;;;;;;;;10282371;28;20490;-64
2022/06/29 00:06:40;;;;;;;7.25;3.22;;;;;;;;;;10280857;28;20103;-64
2022/06/29 00:11:38;;;;;;;4.50;3.60;;;;;;;;;;10281079;28;20218;-64
2022/06/29 00:16:38;;;;;;;4.95;3.30;;;;;;;;;;10283111;28;20083;-64
2022/06/29 00:21:37;;;;;;;5.20;3.65;;;;;;;;;;10290783;28;20496;-64
2022/06/29 00:26:35;;;;;;;5.38;3.70;;;;;;;;;;10290430;28;20072;-63
2022/06/29 00:31:34;;;;;;;6.13;4.38;;;;;;;;;;10301281;28;20076;-64
2022/06/29 00:36:38;;;;;;;8.43;3.72;;;;;;;;;;10283136;28;20068;-64
2022/06/29 00:41:37;;;;;;;4.45;3.75;;;;;;;;;;10289200;28;20037;-64
2022/06/29 00:46:36;;;;;;;5.53;4.20;;;;;;;;;;10308060;28;20489;-65
2022/06/29 00:51:35;;;;;;;5.63;3.92;;;;;;;;;;10282423;28;20076;-64
2022/06/29 00:56:35;;;;;;;6.50;3.13;;;;;;;;;;10281260;28;20076;-65
2022/06/29 01:01:35;;;;;;;5.75;3.90;;;;;;;;;;10279806;28;20072;-65
2022/06/29 01:06:33;;;;;;;6.75;4.35;;;;;;;;;;10278455;28;20068;-64
2022/06/29 01:11:32;;;;;;;4.15;3.85;;;;;;;;;;10278039;28;20076;-65
2022/06/29 01:16:31;;;;;;;6.95;5.15;;;;;;;;;;10282648;28;20079;-65
2022/06/29 01:21:31;;;;;;;5.78;3.88;;;;;;;;;;10277728;28;20506;-65
2022/06/29 01:26:30;;;;;;;6.95;4.50;;;;;;;;;;10279022;28;20091;-64
2022/06/29 01:31:29;;;;;;;10.82;4.63;;;;;;;;;;10276251;28;20897;-67
2022/06/29 01:36:27;;;;;;;6.72;5.75;;;;;;;;;;10278417;28;20079;-65
2022/06/29 01:41:26;;;;;;;5.13;4.63;;;;;;;;;;10276609;28;20052;-67
2022/06/29 01:46:25;;;;;;;4.93;4.38;;;;;;;;;;10276941;28;20068;-68
2022/06/29 01:51:24;;;;;;;4.72;4.32;;;;;;;;;;10278319;28;20080;-68
2022/06/29 01:56:22;;;;;;;5.90;4.68;;;;;;;;;;10274959;28;20064;-67
2022/06/29 02:01:21;;;;;;;5.88;5.03;;;;;;;;;;10281082;28;20068;-68
2022/06/29 02:06:24;;;;;;;5.30;4.80;;;;;;;;;;10274873;28;20451;-67
2022/06/29 02:11:23;;;;;;;5.20;4.78;;;;;;;;;;10277674;28;20060;-67
2022/06/29 02:16:22;;;;;;;6.63;4.40;;;;;;;;;;10278116;28;20087;-68
2022/06/29 02:21:20;;;;;;;5.88;5.30;;;;;;;;;;10277445;28;20099;-68
2022/06/29 02:26:20;;;;;;;8.82;5.65;;;;;;;;;;10277400;28;20073;-68
2022/06/29 02:36:34;;;;;;;6.97;5.68;;;;;;;;;;10277873;28;20162;-68
2022/06/29 02:41:34;;;;;;;6.47;5.85;;;;;;;;;;10276509;28;20052;-68
2022/06/29 02:46:33;;;;;;;6.60;6.00;;;;;;;;;;10276611;28;20056;-68
2022/06/29 02:51:31;;;;;;;7.60;5.85;;;;;;;;;;10276775;28;20068;-68
2022/06/29 02:56:29;;;;;;;6.25;5.65;;;;;;;;;;10279538;28;20103;-68
2022/06/29 03:01:29;;;;;;;8.50;5.78;;;;;;;;;;10276924;28;20074;-67
2022/06/29 03:06:28;;;;;;;6.35;5.75;;;;;;;;;;10275882;28;20418;-68
2022/06/29 03:11:26;;;;;;;8.55;6.18;;;;;;;;;;10275871;28;20068;-67
2022/06/29 03:16:24;;;;;;;6.68;5.65;;;;;;;;;;10276078;28;20045;-67
2022/06/29 03:21:24;;;;;;;7.53;6.80;;;;;;;;;;10275342;28;20471;-67
2022/06/29 03:26:22;;;;;;;7.50;6.25;;;;;;;;;;10276274;28;20045;-67
2022/06/29 03:31:25;;;;;;;8.20;6.60;;;;;;;;;;10275773;28;20072;-67
2022/06/29 03:36:25;;;;;;;6.75;5.78;;;;;;;;;;10279687;28;20478;-67
2022/06/29 03:41:24;;;;;;;7.38;6.45;;;;;;;;;;10276352;28;20076;-67
2022/06/29 03:46:22;;;;;;;10.32;8.95;;;;;;;;;;10276234;28;20087;-67
2022/06/29 03:51:20;;;;;;;10.15;6.97;;;;;;;;;;10276000;28;20041;-67
2022/06/29 03:56:21;;;;;;;7.00;6.40;;;;;;;;;;10279254;28;20068;-67
2022/06/29 04:01:20;;;;;;;12.50;9.57;;;;;;;;;;10274775;28;20076;-67
2022/06/29 04:06:18;;;;;;;8.57;7.78;;;;;;;;;;10275502;28;20080;-66
2022/06/29 04:16:49;;;;;;;8.30;7.50;;;;;;;;;;10137678;28;20074;-67
2022/06/29 04:21:48;;;;;;;7.55;6.95;;;;;;;;;;10272827;28;20091;-68
2022/06/29 04:26:46;;;;;;;11.48;9.25;;;;;;;;;;10320673;28;20045;-68
2022/06/29 04:31:44;;;;;;;9.07;7.63;;;;;;;;;;10319407;28;20044;-68
2022/06/29 04:36:44;;;;;;;8.45;7.65;;;;;;;;;;10313673;28;20049;-68
2022/06/29 04:41:43;;;;;;;10.88;7.63;;;;;;;;;;10283036;28;20068;-68
2022/06/29 04:46:41;;;;;;;8.05;7.32;;;;;;;;;;10286583;28;20044;-68
2022/06/29 04:51:40;;;;;;;8.93;7.97;;;;;;;;;;10280391;28;20498;-67
2022/06/29 04:56:40;;;;;;;8.38;7.68;;;;;;;;;;10278269;28;20081;-68
2022/06/29 05:01:38;;;;;;;9.70;8.70;;;;;;;;;;10276055;28;20069;-68
2022/06/29 05:06:36;;;;;;;10.23;8.40;;;;;;;;;;10281643;28;20090;-68
2022/06/29 05:11:35;;;;;;;8.65;7.93;;;;;;;;;;10314434;28;20080;-67
2022/06/29 05:16:34;;;;;;;8.82;7.90;;;;;;;;;;10286267;28;20668;-66
2022/06/29 05:21:33;;;;;;;12.63;8.38;;;;;;;;;;10285092;28;20645;-66
2022/06/29 05:26:31;;;;;;;8.60;7.82;;;;;;;;;;10282226;28;20065;-67
2022/06/29 05:31:31;;;;;;;8.82;8.02;;;;;;;;;;10282346;28;20072;-67
2022/06/29 05:36:30;;;;;;;11.02;8.75;;;;;;;;;;10282534;28;20061;-67
2022/06/29 05:41:29;;;;;;;9.75;8.85;;;;;;;;;;10281512;28;20083;-67
2022/06/29 05:46:27;;;;;;;10.30;9.40;;;;;;;;;;10282735;28;20067;-66
2022/06/29 05:51:26;;;;;;;10.65;8.63;;;;;;;;;;10282993;28;20072;-67
2022/06/29 05:56:26;;;;;;;11.30;8.80;;;;;;;;;;10300696;28;20125;-66
2022/06/29 06:01:24;;;;;;;12.35;8.25;;;;;;;;;;10279114;28;20087;-66
2022/06/29 06:06:23;;;;;;;10.90;9.70;;;;;;;;;;10294948;28;20513;-66
2022/06/29 06:11:21;;;;;;;13.95;9.30;;;;;;;;;;10316377;28;20100;-67
2022/06/29 06:16:21;;;;;;;12.60;8.93;;;;;;;;;;10316485;28;20433;-66
2022/06/29 06:21:38;;;;;;;11.23;8.30;;;;;;;;;;10276033;28;20109;-67
2022/06/29 06:26:36;;;;;;;9.95;8.70;;;;;;;;;;10277517;28;20045;-67
2022/06/29 06:31:36;;;;;;;12.30;8.30;;;;;;;;;;10280820;28;20174;-66
2022/06/29 06:36:34;;;;;;;9.20;8.25;;;;;;;;;;10276846;28;20072;-69
2022/06/29 06:41:33;;;;;;;12.07;9.38;;;;;;;;;;10276334;28;20072;-67
2022/06/29 06:46:33;;;;;;;15.98;9.30;;;;;;;;;;10293464;28;20102;-69
2022/06/29 06:51:33;;;;;;;11.75;9.48;;;;;;;;;;10276628;28;20084;-69
2022/06/29 06:56:32;;;;;;;11.43;8.75;;;;;;;;;;10279977;28;20068;-69
2022/06/29 07:01:30;;;;;;;13.07;8.65;;;;;;;;;;10276234;28;20140;-69
2022/06/29 07:06:29;;;;;;;10.02;8.98;;;;;;;;;;10275518;28;20077;-69
2022/06/29 07:11:29;;;;;;;9.38;7.82;;;;;;;;;;10281612;28;20072;-70
2022/06/29 07:16:27;;;;;;;10.45;8.35;;;;;;;;;;10282321;28;20109;-69
2022/06/29 07:21:26;;;;;;;12.70;9.45;;;;;;;;;;10281310;28;20096;-69
2022/06/29 07:26:24;;;;;;;8.88;7.65;;;;;;;;;;10281388;28;20084;-68
2022/06/29 07:31:24;;;;;;;10.88;8.85;;;;;;;;;;10278678;28;20494;-69
2022/06/29 07:36:22;;;;;;;7.95;7.25;;;;;;;;;;10273004;28;20064;-68
2022/06/29 07:41:21;;;;;;;8.80;6.93;;;;;;;;;;10284000;28;20075;-69
2022/06/29 07:46:19;;;;;;;10.73;7.13;;;;;;;;;;10277423;28;20075;-68
2022/06/29 07:51:19;;;;;;;9.88;7.63;;;;;;;;;;10278070;28;20107;-69
2022/06/29 07:56:18;;;;;;;7.60;6.90;;;;;;;;;;10280010;28;20072;-68
2022/06/29 08:01:23;;;;;;;10.00;8.75;;;;;;;;;;10286391;28;20325;-68
2022/06/29 08:06:22;;;;;;;7.65;7.05;;;;;;;;;;10289725;28;20040;-69
2022/06/29 08:11:21;;;;;;;8.68;7.25;;;;;;;;;;10287445;28;20524;-68
2022/06/29 08:16:19;;;;;;;8.88;7.32;;;;;;;;;;10287467;28;20064;-69
2022/06/29 08:21:17;;;;;;;7.85;7.00;;;;;;;;;;10285078;28;20475;-69
2022/06/29 08:26:17;;;;;;;8.35;6.68;;;;;;;;;;10284718;28;20084;-69
2022/06/29 08:31:36;;;;;;;8.80;7.07;;;;;;;;;;10284683;28;20082;-69
2022/06/29 08:36:35;;;;;;;9.15;7.38;;;;;;;;;;10283211;28;20045;-68
2022/06/29 08:41:49;;;;;;;8.70;7.07;;;;;;;;;;10301090;28;20079;-68
2022/06/29 08:46:47;;;;;;;9.57;6.63;;;;;;;;;;10285754;28;20055;-69
2022/06/29 08:51:46;;;;;;;7.82;6.90;;;;;;;;;;10288974;28;20069;-69
2022/06/29 08:56:45;;;;;;;7.95;6.55;;;;;;;;;;10306658;28;20083;-69
2022/06/29 09:01:44;;;;;;;7.70;5.57;;;;;;;;;;10289242;28;20068;-68
2022/06/29 09:06:43;;;;;;;10.15;5.85;;;;;;;;;;10284292;28;20068;-68
2022/06/29 09:11:42;;;;;;;8.82;5.65;;;;;;;;;;10285338;28;20068;-68
2022/06/29 09:17:00;;;;;;;14.93;5.35;;;;;;;;;;10294247;28;20069;-68
2022/06/29 09:21:59;;;;;;;11.52;5.43;;;;;;;;;;10280315;28;20081;-69
2022/06/29 09:26:59;;;;;;;7.32;5.30;;;;;;;;;;10293516;28;20060;-69
2022/06/29 09:32:08;;;;;;;9.98;4.50;;;;;;;;;;10278673;28;20087;-69
2022/06/29 09:37:14;;;;;;;7.15;4.47;;;;;;;;;;10277109;28;20093;-69
2022/06/29 09:42:13;;;;;;;10.88;5.32;;;;;;;;;;10291057;28;20470;-69
2022/06/29 09:47:15;;;;;;;4.45;4.05;;;;;;;;;;10283067;28;20068;-70
2022/06/29 09:52:14;;;;;;;5.65;4.45;;;;;;;;;;10280546;28;20068;-70
2022/06/29 09:57:13;;;;;;;6.75;4.38;;;;;;;;;;10292408;28;20045;-68
2022/06/29 10:07:32;;;;;;;12.30;4.18;;;;;;;;;;10299370;28;20073;-68
2022/06/29 10:17:53;;;;;;;8.07;3.90;;;;;;;;;;10279041;28;20037;-69
2022/06/29 10:22:52;;;;;;;5.70;3.83;;;;;;;;;;10276161;28;20081;-69
2022/06/29 10:28:05;;;;;;;6.60;4.20;;;;;;;;;;10274797;28;20092;-68
2022/06/29 10:33:22;;;;;;;10.40;4.90;;;;;;;;;;10271521;28;20068;-69
2022/06/29 10:38:23;;;;;;;9.27;4.57;;;;;;;;;;10279739;28;20067;-69
2022/06/29 10:43:21;;;;;;;5.72;4.78;;;;;;;;;;10278525;28;20084;-69
2022/06/29 10:48:24;;;;;;;11.68;4.45;;;;;;;;;;10282989;28;20103;-69
2022/06/29 10:53:24;;;;;;;7.70;4.53;;;;;;;;;;10277149;28;20051;-69
2022/06/29 10:58:24;;;;;;;6.53;3.55;;;;;;;;;;10278602;28;20084;-69
2022/06/29 11:03:25;;;;;;;19.83;5.95;;;;;;;;;;10315572;28;20452;-69
2022/06/29 11:13:41;;;;;;;9.52;4.68;;;;;;;;;;10277746;28;20084;-69
2022/06/29 11:18:39;;;;;;;8.00;4.43;;;;;;;;;;10279796;28;20041;-69
2022/06/29 11:23:39;;;;;;;5.18;3.42;;;;;;;;;;10275808;28;20088;-69
2022/06/29 11:28:38;;;;;;;11.70;3.40;;;;;;;;;;10280576;28;20053;-69
2022/06/29 11:33:41;;;;;;;5.78;3.30;;;;;;;;;;10284477;28;20080;-70
2022/06/29 11:38:42;;;;;;;7.80;3.00;;;;;;;;;;10285616;28;20073;-68
2022/06/29 11:43:40;;;;;;;6.93;2.85;;;;;;;;;;10286353;28;20068;-68
2022/06/29 11:49:33;;;;;;;5.68;2.97;;;;;;;;;;10286074;28;20084;-69
2022/06/29 11:54:01;;;;;;;7.97;4.00;;;;;;;;;;10287902;28;20049;-70
2022/06/29 11:59:18;;;;;;;11.23;3.75;;;;;;;;;;10294446;28;20429;-68
2022/06/29 12:04:26;;;;;;;7.47;3.13;;;;;;;;;;10284891;28;20080;-69
2022/06/29 12:09:28;;;;;;;9.30;3.30;;;;;;;;;;10287102;28;20425;-69
2022/06/29 12:14:26;;;;;;;8.45;3.65;;;;;;;;;;10282744;28;20084;-68
2022/06/29 12:19:25;;;;;;;8.38;3.78;;;;;;;;;;10286989;28;20446;-68
2022/06/29 12:24:23;;;;;;;4.97;2.80;;;;;;;;;;10286038;28;20088;-68
2022/06/29 12:29:23;;;;;;;6.65;3.33;;;;;;;;;;10285878;28;20072;-69
2022/06/29 12:34:35;;;;;;;3.47;3.17;;;;;;;;;;10284493;28;20071;-69
2022/06/29 12:39:34;;;;;;;6.90;2.70;;;;;;;;;;10280131;28;20049;-68
2022/06/29 12:44:33;;;;;;;10.00;3.40;;;;;;;;;;10280620;28;20068;-69
2022/06/29 12:49:34;;;;;;;6.17;3.60;;;;;;;;;;10280428;28;20171;-68
2022/06/29 12:54:33;;;;;;;4.45;3.80;;;;;;;;;;10284439;28;20079;-71
2022/06/29 12:59:31;;;;;;;8.80;3.53;;;;;;;;;;10281682;28;20052;-69
2022/06/29 13:04:31;;;;;;;4.97;3.20;;;;;;;;;;10284465;28;20110;-70
2022/06/29 13:09:29;;;;;;;6.32;2.85;;;;;;;;;;10280352;28;20083;-69
2022/06/29 13:14:28;;;;;;;10.00;2.97;;;;;;;;;;10279712;28;20526;-69
2022/06/29 13:19:26;;;;;;;6.22;3.45;;;;;;;;;;10284078;28;20048;-68
2022/06/29 13:24:27;;;;;;;6.85;4.03;;;;;;;;;;10279618;28;20103;-68
2022/06/29 13:29:26;;;;;;;5.38;3.25;;;;;;;;;;10287717;28;20065;-68
2022/06/29 13:34:26;;;;;;;3.63;2.88;;;;;;;;;;10282487;28;20065;-68
2022/06/29 13:39:26;;;;;;;6.05;3.72;;;;;;;;;;10281403;28;20111;-70
2022/06/29 13:44:25;;;;;;;6.18;3.65;;;;;;;;;;10279057;28;20087;-69
2022/06/29 13:49:23;;;;;;;7.97;4.32;;;;;;;;;;10282073;28;20049;-68
2022/06/29 13:54:27;;;;;;;6.75;4.22;;;;;;;;;;10280828;28;20065;-69
2022/06/29 14:04:53;;;;;;;5.10;3.38;;;;;;;;;;10282167;28;20306;-70
2022/06/29 14:09:53;;;;;;;5.85;2.92;;;;;;;;;;10277933;28;20421;-69
2022/06/29 14:14:51;;;;;;;9.20;3.55;;;;;;;;;;10278427;28;20049;-69
2022/06/29 14:19:49;;;;;;;8.13;3.08;;;;;;;;;;10280911;28;20513;-70
2022/06/29 14:24:48;;;;;;;4.30;2.80;;;;;;;;;;10278316;28;20103;-69
2022/06/29 14:29:47;;;;;;;4.18;2.92;;;;;;;;;;10276728;28;20040;-68
2022/06/29 14:34:46;;;;;;;11.38;3.90;;;;;;;;;;10276615;28;20069;-69
2022/06/29 14:39:45;;;;;;;5.40;3.03;;;;;;;;;;10275659;28;20049;-68
2022/06/29 14:44:43;;;;;;;8.43;3.78;;;;;;;;;;10277195;28;20076;-69
2022/06/29 14:49:43;;;;;;;9.85;5.57;;;;;;;;;;10276923;28;20065;-68
2022/06/29 14:54:41;;;;;;;7.95;3.80;;;;;;;;;;10277120;28;20077;-69
2022/06/29 14:59:40;;;;;;;5.13;3.08;;;;;;;;;;10279899;28;20049;-69
2022/06/29 15:04:38;;;;;;;9.10;3.22;;;;;;;;;;10275213;28;20130;-69
2022/06/29 15:09:38;;;;;;;8.52;2.90;;;;;;;;;;10279395;28;20049;-69
2022/06/29 15:14:37;;;;;;;4.28;3.42;;;;;;;;;;10278125;28;20076;-70
2022/06/29 15:19:41;;;;;;;7.45;3.55;;;;;;;;;;10275881;28;20473;-69
2022/06/29 15:24:41;;;;;;;6.47;3.03;;;;;;;;;;10275778;28;20096;-70
2022/06/29 15:29:41;;;;;;;12.88;3.80;;;;;;;;;;10276269;28;20049;-70
2022/06/29 15:40:00;;;;;;;7.20;3.42;;;;;;;;;;10274712;28;20049;-68
2022/06/29 15:44:59;;;;;;;9.98;3.30;;;;;;;;;;10274486;28;20160;-68
2022/06/29 15:49:57;;;;;;;5.75;3.22;;;;;;;;;;10275522;28;20501;-69
2022/06/29 16:00:16;;;;;;;6.63;3.40;;;;;;;;;;10274406;28;20049;-68
2022/06/29 16:05:14;;;;;;;4.95;3.13;;;;;;;;;;10279059;28;20088;-68
2022/06/29 16:10:13;;;;;;;3.72;2.60;;;;;;;;;;10274324;28;20084;-69
2022/06/29 16:15:12;;;;;;;8.90;4.25;;;;;;;;;;10278380;28;20037;-69
2022/06/29 16:20:12;;;;;;;8.05;3.83;;;;;;;;;;10284912;28;20561;-69
2022/06/29 16:25:10;;;;;;;10.98;5.38;;;;;;;;;;10282605;28;20105;-71
2022/06/29 16:30:09;;;;;;;4.25;3.20;;;;;;;;;;10290978;28;20146;-69
2022/06/29 16:35:11;;;;;;;8.05;3.10;;;;;;;;;;10285475;28;20052;-70
2022/06/29 16:40:10;;;;;;;6.90;3.65;;;;;;;;;;10282457;28;20076;-71
2022/06/29 16:45:08;;;;;;;4.60;3.83;;;;;;;;;;10281637;28;20088;-65
2022/06/29 16:50:08;;;;;;;11.88;5.35;;;;;;;;;;10280393;28;20045;-66
2022/06/29 16:55:10;;;;;;;9.73;4.32;;;;;;;;;;10288304;28;20502;-65
2022/06/29 17:00:09;;;;;;;5.90;3.58;;;;;;;;;;10276477;28;20093;-66
2022/06/29 17:05:09;;;;;;;7.28;3.60;;;;;;;;;;10283983;28;20705;-66
2022/06/29 17:10:07;;;;;;;10.43;3.53;;;;;;;;;;10284392;28;20048;-67
2022/06/29 17:15:07;;;;;;;6.00;5.15;;;;;;;;;;10289453;28;20087;-66
2022/06/29 17:20:06;;;;;;;11.40;4.05;;;;;;;;;;10295207;28;20064;-66
2022/06/29 17:25:05;;;;;;;8.63;3.78;;;;;;;;;;10285001;28;20076;-65
2022/06/29 17:30:04;;;;;;;9.48;4.38;;;;;;;;;;10281695;28;20080;-67
2022/06/29 17:35:04;;;;;;;10.65;4.53;;;;;;;;;;10283558;28;20077;-66
2022/06/29 17:40:03;;;;;;;9.02;3.95;;;;;;;;;;10280470;28;20065;-66
2022/06/29 17:45:02;;;;;;;10.02;4.80;;;;;;;;;;10287334;28;20080;-66
2022/06/29 17:50:00;;;;;;;10.50;5.90;;;;;;;;;;10283791;28;20065;-67
2022/06/29 17:55:00;;;;;;;13.15;5.15;;;;;;;;;;10291203;28;20060;-65
2022/06/29 17:59:58;;;;;;;9.73;6.18;;;;;;;;;;10275813;28;20075;-66
2022/06/29 18:04:57;;;;;;;13.00;4.72;;;;;;;;;;10280010;28;20179;-66
2022/06/29 18:09:55;;;;;;;8.98;4.22;;;;;;;;;;10285583;28;20068;-66
2022/06/29 18:14:55;;;;;;;10.88;3.97;;;;;;;;;;10281826;28;20079;-66
2022/06/29 18:19:54;;;;;;;13.55;5.10;;;;;;;;;;10274006;28;20064;-66
2022/06/29 18:24:53;;;;;;;11.50;4.82;;;;;;;;;;10302843;28;20080;-66
2022/06/29 18:29:52;;;;;;;12.43;4.57;;;;;;;;;;10285370;28;20053;-66
2022/06/29 18:34:51;;;;;;;8.57;4.03;;;;;;;;;;10277902;28;20544;-66
2022/06/29 18:39:50;;;;;;;12.75;4.28;;;;;;;;;;10277444;28;20119;-65
2022/06/29 18:44:49;;;;;;;10.45;4.47;;;;;;;;;;10274417;28;20095;-65
2022/06/29 18:49:47;;;;;;;6.00;3.65;;;;;;;;;;10282817;28;20060;-65
2022/06/29 18:54:47;;;;;;;9.27;4.05;;;;;;;;;;10279480;28;20434;-66
2022/06/29 18:59:51;;;;;;;10.07;4.57;;;;;;;;;;10274251;28;20079;-63
2022/06/29 19:04:57;;;;;;;4.60;3.15;;;;;;;;;;10278729;28;20086;-65
2022/06/29 19:09:57;;;;;;;4.53;3.13;;;;;;;;;;10291662;28;20079;-66
2022/06/29 19:14:55;;;;;;;6.45;3.10;;;;;;;;;;10277824;28;20067;-66
2022/06/29 19:19:54;;;;;;;7.72;4.00;;;;;;;;;;10277897;28;20513;-65
2022/06/29 19:24:52;;;;;;;8.48;3.55;;;;;;;;;;10279918;28;20465;-65
2022/06/29 19:29:52;;;;;;;7.93;4.93;;;;;;;;;;10279618;28;20517;-65
2022/06/29 19:34:50;;;;;;;13.77;4.15;;;;;;;;;;10284184;28;20507;-65
2022/06/29 19:39:49;;;;;;;9.45;4.13;;;;;;;;;;10285437;28;20463;-64
2022/06/29 19:44:47;;;;;;;8.63;3.97;;;;;;;;;;10286533;28;20080;-65
2022/06/29 19:49:47;;;;;;;8.85;3.78;;;;;;;;;;10281646;28;20076;-65
2022/06/29 19:54:45;;;;;;;14.02;4.40;;;;;;;;;;10281332;28;20063;-65
2022/06/29 19:59:43;;;;;;;5.25;4.05;;;;;;;;;;10285668;28;20079;-65
2022/06/29 20:04:42;;;;;;;10.27;4.47;;;;;;;;;;10292996;28;20075;-65
2022/06/29 20:09:42;;;;;;;16.25;4.10;;;;;;;;;;10285041;28;20080;-65
2022/06/29 20:14:40;;;;;;;16.58;4.78;;;;;;;;;;10285817;28;20075;-65
2022/06/29 20:19:40;;;;;;;8.98;3.67;;;;;;;;;;10283468;28;20072;-66
2022/06/29 20:24:38;;;;;;;10.07;4.43;;;;;;;;;;10295639;28;20599;-65
2022/06/29 20:29:37;;;;;;;8.07;3.92;;;;;;;;;;10285434;28;20068;-65
2022/06/29 20:34:36;;;;;;;6.22;4.45;;;;;;;;;;10288903;28;20462;-64
2022/06/29 20:39:34;;;;;;;7.50;4.30;;;;;;;;;;10301510;28;20087;-65
2022/06/29 20:49:51;;;;;;;6.75;3.90;;;;;;;;;;10275369;28;20052;-67
2022/06/29 20:54:49;;;;;;;10.93;3.70;;;;;;;;;;10284051;28;20053;-64
2022/06/29 20:59:48;;;;;;;6.03;4.00;;;;;;;;;;10280142;28;20064;-65
2022/06/29 21:04:46;;;;;;;9.20;6.78;;;;;;;;;;10280023;28;20077;-64
2022/06/29 21:09:46;;;;;;;11.45;9.07;;;;;;;;;;10279815;28;20045;-66
2022/06/29 21:14:44;;;;;;;14.73;8.48;;;;;;;;;;10280384;28;20417;-66
2022/06/29 21:19:42;;;;;;;9.27;7.10;;;;;;;;;;10298818;28;20068;-65
2022/06/29 21:24:41;;;;;;;7.15;5.00;;;;;;;;;;10287875;28;20084;-65
2022/06/29 21:29:40;;;;;;;11.05;5.15;;;;;;;;;;10288333;28;20156;-65
2022/06/29 21:34:39;;;;;;;7.97;5.20;;;;;;;;;;10289291;28;20061;-66
2022/06/29 21:39:37;;;;;;;20.10;5.45;;;;;;;;;;10280343;28;20080;-65
2022/06/29 21:44:35;;;;;;;10.23;5.50;;;;;;;;;;10283943;28;20129;-65
2022/06/29 21:54:51;;;;;;;10.75;4.40;;;;;;;;;;10283166;28;20071;-66
2022/06/29 21:59:49;;;;;;;6.93;4.72;;;;;;;;;;10282153;28;20510;-66
2022/06/29 22:04:49;;;;;;;8.52;5.13;;;;;;;;;;10279189;28;20073;-66
2022/06/29 22:09:47;;;;;;;10.80;5.20;;;;;;;;;;10278550;28;20537;-66
2022/06/29 22:14:45;;;;;;;12.63;5.25;;;;;;;;;;10277933;28;20044;-65
2022/06/29 22:19:44;;;;;;;7.95;4.90;;;;;;;;;;10278775;28;20521;-66
2022/06/29 22:24:43;;;;;;;13.95;5.45;;;;;;;;;;10281060;28;20084;-65
2022/06/29 22:29:42;;;;;;;8.50;5.00;;;;;;;;;;10277000;28;20057;-65
2022/06/29 22:34:40;;;;;;;8.13;5.45;;;;;;;;;;10280444;28;20140;-66
2022/06/29 22:39:38;;;;;;;8.88;5.05;;;;;;;;;;10276270;28;20086;-65
2022/06/29 22:44:38;;;;;;;9.23;5.25;;;;;;;;;;10276022;28;20088;-65
2022/06/29 22:49:36;;;;;;;4.93;4.43;;;;;;;;;;10275904;28;20084;-65
2022/06/29 22:54:35;;;;;;;6.38;4.80;;;;;;;;;;10275755;28;20076;-65
2022/06/29 22:59:33;;;;;;;7.10;4.68;;;;;;;;;;10276754;28;20076;-65
2022/06/29 23:04:32;;;;;;;8.48;4.88;;;;;;;;;;10283206;28;20073;-65
2022/06/29 23:09:31;;;;;;;8.15;4.93;;;;;;;;;;10277835;28;20068;-65
2022/06/29 23:14:29;;;;;;;9.05;4.63;;;;;;;;;;10276430;28;20190;-65
2022/06/29 23:19:27;;;;;;;4.93;4.13;;;;;;;;;;10276092;28;20083;-65
2022/06/29 23:24:27;;;;;;;5.47;4.32;;;;;;;;;;10275408;28;20080;-65
2022/06/29 23:29:28;;;;;;;5.78;4.43;;;;;;;;;;10276422;28;20079;-65
2022/06/29 23:34:26;;;;;;;6.60;4.47;;;;;;;;;;10283639;28;20076;-65
2022/06/29 23:39:24;;;;;;;6.20;4.18;;;;;;;;;;10275294;28;20060;-65
2022/06/29 23:44:24;;;;;;;6.47;4.50;;;;;;;;;;10275085;28;20045;-65
2022/06/29 23:49:23;;;;;;;5.57;3.83;;;;;;;;;;10275016;28;20049;-66
2022/06/29 23:54:21;;;;;;;4.47;3.88;;;;;;;;;;10282889;28;20075;-65
2022/06/29 23:59:20;;;;;;;8.48;3.97;;;;;;;;;;10275737;28;20115;-65
